CDT,Max TemperatureF,Mean TemperatureF,Min TemperatureF,Max Dew PointF,MeanDew PointF,Min DewpointF,Max Humidity, Mean Humidity, Min Humidity, Max Sea Level PressureIn, Mean Sea Level PressureIn, Min Sea Level PressureIn, Max VisibilityMiles, Mean VisibilityMiles, Min VisibilityMiles, Max Wind SpeedMPH, Mean Wind SpeedMPH, Max Gust SpeedMPH,PrecipitationIn, CloudCover, Events, WindDirDegrees
2012-9-1,87,76,64,68,60,55,78,61,40,30.07,30.03,29.98,10,10,9,10,7,15,0.00,0,,67
2012-9-2,89,73,57,66,60,54,88,65,36,30.02,29.95,29.88,10,10,10,12,7,20,0.00,0,,158
2012-9-3,80,73,66,70,66,61,94,81,51,29.99,29.92,29.88,10,10,5,13,7,16,0.00,1,Rain,180
2012-9-4,93,78,62,70,65,57,94,69,34,29.96,29.85,29.74,10,9,2,24,7,39,0.02,1,Rain,146
2012-9-5,80,70,59,64,56,46,100,69,32,29.97,29.88,29.77,10,9,1,20,8,29,0.14,1,Rain,325
2012-9-6,84,68,53,61,48,41,94,53,23,30.02,29.93,29.77,10,10,8,29,7,54,0.02,1,,128
2012-9-7,71,62,53,61,52,43,100,72,38,30.10,29.97,29.78,10,10,6,20,10,25,0.02,2,Rain,5
2012-9-8,82,63,44,46,42,37,93,55,20,30.12,30.05,29.92,10,10,10,23,11,36,0.00,0,,309
2012-9-9,73,60,46,50,46,43,93,62,33,30.24,30.16,30.09,10,10,9,9,6,12,0.00,0,,2
2012-9-10,82,64,46,50,47,45,93,55,28,30.12,30.01,29.88,10,10,4,24,11,38,0.00,0,,182
2012-9-11,91,76,60,52,49,45,68,43,21,29.91,29.87,29.82,10,10,9,25,14,36,0.00,0,,189
2012-9-12,77,64,51,57,48,34,100,67,28,30.30,30.12,29.91,10,8,1,20,11,31,0.09,5,Rain,35
2012-9-13,71,60,50,52,48,41,100,73,33,30.40,30.34,30.30,10,10,6,9,5,15,0.00,2,,231
2012-9-14,80,65,50,46,43,32,87,53,17,30.34,30.29,30.23,10,10,10,15,8,21,0.00,0,,224
2012-9-15,78,64,51,48,43,39,67,48,24,30.25,30.18,30.07,10,10,10,18,10,24,0.00,0,,198
2012-9-16,77,64,51,59,55,46,100,76,47,30.06,29.98,29.90,10,9,0,15,9,21,0.00,1,Fog,208
2012-9-17,64,54,42,59,44,34,100,70,32,30.06,30.00,29.92,10,9,2,18,10,25,0.09,2,Rain,356
2012-9-18,62,48,35,39,34,28,93,59,27,30.10,30.03,29.91,10,10,10,13,7,18,0.00,2,,303
2012-9-19,78,62,46,46,37,27,72,43,21,29.97,29.84,29.76,10,10,10,25,12,34,0.00,0,,261
2012-9-20,68,56,44,36,29,25,61,38,20,30.03,29.98,29.93,10,10,6,18,10,25,0.00,1,,289
2012-9-21,71,60,48,39,36,30,66,43,23,29.93,29.86,29.80,10,10,7,21,7,29,0.00,2,,1
2012-9-22,59,46,32,37,28,21,75,50,27,30.28,30.18,29.93,10,10,7,21,12,30,0.00,0,,341
2012-9-23,62,48,33,30,25,21,75,44,20,30.36,30.28,30.20,10,10,10,10,6,14,0.00,0,,32
2012-9-24,75,58,42,41,34,25,67,43,22,30.20,30.00,29.85,10,10,10,18,10,26,0.00,0,,211
2012-9-25,80,65,50,45,40,34,76,46,20,29.93,29.86,29.81,10,10,6,13,8,18,0.00,0,,355
2012-9-26,69,55,41,36,30,19,70,41,15,30.18,30.08,29.97,10,10,10,10,7,18,0.00,0,,26
2012-9-27,69,53,37,39,33,27,81,49,20,30.23,30.18,30.14,10,10,9,9,6,,0.00,0,,41
2012-9-28,75,58,41,41,33,25,81,44,16,30.22,30.17,30.13,10,10,3,8,3,15,0.00,0,,131
2012-9-29,78,64,50,43,39,36,66,41,21,30.18,30.12,30.04,10,10,6,9,6,,0.00,0,,259
2012-9-30,78,66,55,41,39,37,54,37,23,30.05,29.98,29.92,10,10,9,12,8,,0.00,0,,294